createdAt,value
2022-09-24T00:02:38.688Z,79.24
2022-09-24T00:07:48.880Z,79.40
2022-09-24T00:13:03.115Z,79.94
2022-09-24T00:18:15.435Z,81.04
2022-09-24T00:23:33.963Z,80.69
2022-09-24T00:28:54.094Z,80.83
2022-09-24T00:33:59.428Z,81.21
2022-09-24T00:39:07.043Z,81.35
2022-09-24T00:45:01.935Z,82.54
2022-09-24T00:50:20.311Z,82.34
2022-09-24T00:55:30.404Z,81.62
2022-09-24T01:00:46.180Z,82.48
2022-09-24T01:05:52.303Z,81.81
2022-09-24T01:11:16.016Z,81.83
2022-09-24T01:16:40.390Z,82.12
2022-09-24T01:21:51.182Z,81.28
2022-09-24T01:27:19.958Z,81.67
2022-09-24T01:32:39.976Z,81.15
2022-09-24T01:38:02.554Z,81.06
2022-09-24T01:43:24.535Z,81.14
2022-09-24T01:48:37.846Z,80.86
2022-09-24T01:53:56.511Z,80.98
2022-09-24T01:59:08.649Z,80.81
2022-09-24T02:04:33.934Z,81.19
2022-09-24T02:09:41.844Z,81.13
2022-09-24T02:14:50.978Z,80.97
2022-09-24T02:20:16.166Z,80.81
2022-09-24T02:31:06.231Z,80.87
2022-09-24T02:36:17.574Z,80.72
2022-09-24T02:41:27.305Z,81.02
2022-09-24T02:46:40.643Z,80.60
2022-09-24T02:52:01.235Z,81.46
2022-09-24T02:57:13.234Z,81.30
2022-09-24T03:02:22.057Z,80.66
2022-09-24T03:07:37.261Z,80.91
2022-09-24T03:12:46.250Z,80.60
2022-09-24T03:17:58.926Z,81.36
2022-09-24T03:23:08.773Z,81.41
2022-09-24T03:28:24.455Z,81.29
2022-09-24T03:33:35.437Z,81.26
2022-09-24T03:38:55.419Z,82.31
2022-09-24T03:44:06.580Z,81.79
2022-09-24T03:49:19.649Z,81.86
2022-09-24T03:54:27.739Z,81.72
2022-09-24T03:59:36.200Z,82.19
2022-09-24T04:04:56.617Z,82.31
2022-09-24T04:10:10.253Z,82.36
2022-09-24T04:15:24.963Z,83.00
2022-09-24T04:20:38.705Z,83.08
2022-09-24T04:25:49.577Z,82.83
2022-09-24T04:31:07.261Z,83.08
2022-09-24T04:36:15.327Z,83.36
2022-09-24T04:41:32.673Z,83.66
2022-09-24T04:46:49.139Z,83.50
2022-09-24T04:52:05.008Z,83.31
2022-09-24T04:57:30.131Z,84.45
2022-09-24T05:02:40.394Z,84.45
2022-09-24T05:08:00.843Z,84.21
2022-09-24T05:13:07.799Z,85.13
2022-09-24T05:18:11.949Z,84.96
2022-09-24T05:23:19.799Z,85.64
2022-09-24T05:28:34.856Z,85.46
2022-09-24T05:33:53.098Z,85.09
2022-09-24T05:39:02.234Z,85.64
2022-09-24T05:44:33.011Z,85.86
2022-09-24T05:56:00.929Z,85.27
2022-09-24T06:01:15.656Z,85.11
2022-09-24T06:06:25.936Z,85.64
2022-09-24T06:11:40.975Z,85.48
2022-09-24T06:16:50.084Z,85.78
2022-09-24T06:22:04.241Z,84.80
2022-09-24T06:27:15.025Z,85.11
2022-09-24T06:32:30.961Z,84.98
2022-09-24T06:37:49.984Z,84.32
2022-09-24T06:43:03.068Z,83.33
2022-09-24T06:48:15.095Z,83.03
2022-09-24T06:53:20.317Z,81.76
2022-09-24T06:58:35.472Z,79.42
2022-09-24T07:04:01.252Z,77.64
2022-09-24T07:09:27.194Z,75.84
2022-09-24T07:14:39.275Z,76.11
2022-09-24T07:20:05.203Z,75.22
2022-09-24T07:25:17.590Z,75.20
2022-09-24T07:30:22.355Z,73.58
2022-09-24T07:35:30.001Z,73.93
2022-09-24T07:40:48.146Z,73.40
2022-09-24T07:46:08.482Z,72.14
2022-09-24T07:51:30.460Z,71.46
2022-09-24T07:56:55.437Z,70.61
2022-09-24T08:02:10.493Z,69.86
2022-09-24T08:07:32.372Z,70.57
2022-09-24T08:12:44.153Z,70.67
2022-09-24T08:18:21.609Z,69.65
2022-09-24T08:23:35.850Z,69.93
2022-09-24T08:28:50.638Z,70.30
2022-09-24T08:33:57.715Z,69.96
2022-09-24T08:39:58.458Z,69.32
2022-09-24T08:45:26.973Z,69.49
2022-09-24T08:50:35.532Z,68.91
2022-09-24T08:55:55.437Z,68.84
2022-09-24T09:01:20.241Z,68.42
2022-09-24T09:06:48.695Z,66.95
2022-09-24T09:12:04.091Z,66.75
2022-09-24T09:17:33.539Z,66.23
2022-09-24T09:22:49.951Z,66.14
2022-09-24T09:28:17.116Z,63.67
2022-09-24T09:33:36.371Z,64.44
2022-09-24T09:39:08.182Z,64.34
2022-09-24T09:44:38.159Z,63.56
2022-09-24T09:49:51.025Z,62.29
2022-09-24T09:54:55.022Z,61.43
2022-09-24T10:00:05.250Z,61.22
2022-09-24T10:05:27.261Z,60.72
2022-09-24T10:10:33.418Z,61.79
2022-09-24T10:15:51.356Z,60.04
2022-09-24T10:21:32.371Z,60.39
2022-09-24T10:26:44.537Z,59.29
2022-09-24T10:31:57.526Z,57.91
2022-09-24T10:37:14.516Z,58.22
2022-09-24T10:42:40.087Z,58.29
2022-09-24T10:47:57.237Z,58.26
2022-09-24T10:53:09.892Z,59.76
2022-09-24T10:58:37.931Z,58.29
2022-09-24T11:04:39.137Z,58.45
2022-09-24T11:15:33.953Z,54.38
2022-09-24T11:21:01.700Z,53.85
2022-09-24T11:26:44.629Z,53.43
2022-09-24T11:32:09.582Z,52.73
2022-09-24T11:38:02.334Z,49.94
2022-09-24T11:43:38.540Z,51.32
2022-09-24T11:49:19.174Z,49.88
2022-09-24T11:54:41.765Z,50.21
2022-09-24T12:00:09.907Z,49.98
2022-09-24T12:05:39.314Z,48.68
2022-09-24T12:11:07.145Z,48.94
2022-09-24T12:22:30.644Z,50.01
2022-09-24T12:27:45.568Z,49.72
2022-09-24T12:32:59.325Z,49.73
2022-09-24T12:38:19.903Z,49.98
2022-09-24T12:43:48.409Z,49.93
2022-09-24T12:48:55.760Z,51.06
2022-09-24T12:54:09.431Z,50.89
2022-09-24T12:59:34.417Z,49.92
2022-09-24T13:04:42.214Z,50.48
2022-09-24T13:10:05.772Z,49.38
2022-09-24T13:15:42.469Z,48.14
2022-09-24T13:21:01.187Z,49.17
2022-09-24T13:26:09.543Z,49.21
2022-09-24T13:31:28.568Z,47.83
2022-09-24T13:36:41.232Z,49.29
2022-09-24T13:41:59.100Z,47.76
2022-09-24T13:47:17.119Z,46.29
2022-09-24T13:52:37.356Z,47.50
2022-09-24T13:57:51.147Z,47.74
2022-09-24T14:03:07.863Z,48.06
2022-09-24T14:13:47.762Z,48.10
2022-09-24T14:19:01.822Z,47.02
2022-09-24T14:24:08.910Z,48.06
2022-09-24T14:29:18.116Z,48.64
2022-09-24T14:34:28.264Z,49.45
2022-09-24T14:39:31.369Z,49.56
2022-09-24T14:44:37.461Z,49.20
2022-09-24T14:49:45.794Z,48.72
2022-09-24T14:54:49.210Z,49.18
2022-09-24T14:59:53.976Z,49.31
2022-09-24T15:05:04.811Z,49.69
2022-09-24T15:10:21.478Z,49.40
2022-09-24T15:15:32.359Z,49.32
2022-09-24T15:20:36.699Z,49.69
2022-09-24T15:25:44.550Z,49.46
2022-09-24T15:31:11.331Z,48.90
2022-09-24T15:37:03.775Z,49.75
2022-09-24T15:42:31.794Z,50.04
2022-09-24T15:47:53.170Z,49.87
2022-09-24T15:53:34.612Z,50.08
2022-09-24T15:58:49.869Z,50.30
2022-09-24T16:09:49.057Z,50.91
2022-09-24T16:15:01.511Z,51.17
2022-09-24T16:20:10.799Z,50.66
2022-09-24T16:25:25.593Z,51.26
2022-09-24T16:30:43.772Z,51.31
2022-09-24T16:35:52.104Z,51.92
2022-09-24T16:41:05.671Z,52.15
2022-09-24T16:46:20.272Z,52.68
2022-09-24T16:56:53.988Z,52.97
2022-09-24T17:02:21.200Z,52.76
2022-09-24T17:07:33.750Z,52.46
2022-09-24T17:12:39.989Z,52.88
2022-09-24T17:17:58.027Z,53.04
2022-09-24T17:23:12.164Z,53.19
2022-09-24T17:28:22.198Z,53.34
2022-09-24T17:33:44.603Z,53.67
2022-09-24T17:38:59.506Z,53.92
2022-09-24T17:44:06.049Z,53.74
2022-09-24T17:49:17.865Z,53.94
2022-09-24T17:54:42.714Z,54.37
2022-09-24T17:59:53.087Z,54.54
2022-09-24T18:05:02.245Z,54.85
2022-09-24T18:10:12.285Z,55.20
2022-09-24T18:15:19.080Z,54.79
2022-09-24T18:20:29.154Z,55.09
2022-09-24T18:25:43.760Z,55.44
2022-09-24T18:30:49.125Z,55.64
2022-09-24T18:35:57.768Z,55.75
2022-09-24T18:41:09.015Z,56.32
2022-09-24T18:46:25.184Z,56.85
2022-09-24T18:51:34.794Z,57.41
2022-09-24T18:56:43.945Z,57.62
2022-09-24T19:01:53.909Z,58.11
2022-09-24T19:07:05.855Z,58.05
2022-09-24T19:12:32.818Z,58.38
2022-09-24T19:18:00.639Z,58.97
2022-09-24T19:23:15.450Z,59.21
2022-09-24T19:28:28.488Z,59.63
2022-09-24T19:33:38.297Z,59.83
2022-09-24T19:38:54.384Z,60.29
2022-09-24T19:44:08.455Z,60.95
2022-09-24T19:49:18.943Z,61.24
2022-09-24T19:54:27.563Z,61.91
2022-09-24T19:59:45.871Z,62.83
2022-09-24T20:04:56.691Z,62.98
2022-09-24T20:10:19.619Z,63.61
2022-09-24T20:15:55.573Z,64.39
2022-09-24T20:21:21.777Z,65.61
2022-09-24T20:27:04.736Z,66.36
2022-09-24T20:32:16.775Z,67.38
2022-09-24T20:37:31.563Z,67.40
2022-09-24T20:42:41.090Z,67.40
2022-09-24T20:48:21.676Z,69.15
2022-09-24T20:53:31.565Z,68.48
2022-09-24T20:58:42.467Z,69.12
2022-09-24T21:04:03.307Z,69.88
2022-09-24T21:09:22.962Z,70.98
2022-09-24T21:14:36.998Z,70.51
2022-09-24T21:19:46.379Z,70.83
2022-09-24T21:25:09.332Z,72.04
2022-09-24T21:30:37.299Z,72.31
2022-09-24T21:35:47.970Z,72.80
2022-09-24T21:41:05.601Z,73.26
2022-09-24T21:46:12.155Z,74.00
2022-09-24T21:51:20.596Z,74.47
2022-09-24T21:56:36.834Z,75.20
2022-09-24T22:01:46.880Z,74.88
2022-09-24T22:07:12.770Z,75.13
2022-09-24T22:12:28.225Z,76.45
2022-09-24T22:17:34.777Z,76.22
2022-09-24T22:22:44.867Z,76.81
2022-09-24T22:27:58.725Z,77.18
2022-09-24T22:33:09.978Z,77.33
2022-09-24T22:38:31.209Z,77.63
2022-09-24T22:43:52.817Z,78.89
2022-09-24T22:49:04.459Z,78.94
2022-09-24T22:54:33.439Z,78.87
2022-09-24T22:59:42.749Z,79.53
2022-09-24T23:05:02.148Z,81.02
2022-09-24T23:10:25.941Z,80.39
2022-09-24T23:15:37.158Z,81.01
2022-09-24T23:20:53.469Z,82.20
2022-09-24T23:26:14.243Z,82.65
2022-09-24T23:31:35.374Z,83.26
2022-09-24T23:36:45.437Z,83.44
2022-09-24T23:42:07.382Z,84.21
2022-09-24T23:53:12.308Z,86.47
